Time;durP1;ratioP1;P1;durP2;ratioP2;P2;SDS_P1;SDS_P2;PMS_P1;PMS_P2;Temp;Humidity;BMP_temperature;BMP_pressure;BME280_temperature;BME280_humidity;BME280_pressure;Samples;Min_cycle;Max_cycle;Signal;HPM_P1;HPM_P2
2022/10/07 00:01:11;;;;;;;;;;;;;;;21.91;65.51;100823.84;7316520;19;129442;-38
2022/10/07 00:03:37;;;;;;;;;;;;;;;21.90;65.53;100835.28;7315637;19;129327;-37
2022/10/07 00:06:07;;;;;;;;;;;;;;;21.87;65.04;100825.06;7313958;19;129271;-38
2022/10/07 00:08:34;;;;;;;;;;;;;;;21.93;64.83;100827.22;7313836;19;129156;-38
2022/10/07 00:11:22;;;;;;;;;;;;;;;21.91;64.94;100823.84;7314120;19;130416;-37
2022/10/07 00:13:51;;;;;;;;;;;;;;;21.96;65.16;100813.06;7314534;19;129928;-37
2022/10/07 00:16:18;;;;;;;;;;;;;;;21.92;64.55;100822.94;7313309;19;129353;-38
2022/10/07 00:18:44;;;;;;;;;;;;;;;21.95;65.26;100812.22;7315212;19;129750;-38
2022/10/07 00:21:10;;;;;;;;;;;;;;;21.92;65.55;100812.47;7311962;19;129309;-38
2022/10/07 00:23:36;;;;;;;;;;;;;;;21.84;65.18;100798.25;7314859;19;128806;-37
2022/10/07 00:26:02;;;;;;;;;;;;;;;21.92;65.13;100807.22;7310752;19;128874;-37
2022/10/07 00:28:28;;;;;;;;;;;;;;;21.92;64.79;100804.59;7314606;19;129161;-37
2022/10/07 00:31:00;;;;;;;;;;;;;;;21.92;65.32;100809.00;7312700;19;129713;-38
2022/10/07 00:33:25;;;;;;;;;;;;;;;21.93;65.07;100808.88;7315144;19;128740;-37
2022/10/07 00:35:51;;;;;;;;;;;;;;;21.93;65.05;100798.41;7310106;19;130011;-38
2022/10/07 00:38:16;;;;;;;;;;;;;;;21.82;65.54;100784.44;7315381;19;130049;-37
2022/10/07 00:40:41;;;;;;;;;;;;;;;21.96;64.69;100800.78;7313338;19;129486;-38
2022/10/07 00:43:25;;;;;;;;;;;;;;;21.91;64.80;100795.06;7315578;19;129511;-37
2022/10/07 00:45:51;;;;;;;;;;;;;;;21.90;64.77;100790.78;7311111;19;129648;-37
2022/10/07 00:48:19;;;;;;;;;;;;;;;21.93;64.82;100795.78;7312539;19;129476;-37
2022/10/07 00:50:47;;;;;;;;;;;;;;;21.89;65.36;100788.28;7310949;19;130885;-37
2022/10/07 00:53:12;;;;;;;;;;;;;;;21.78;65.71;100775.97;7313819;19;129160;-37
2022/10/07 00:55:37;;;;;;;;;;;;;;;21.92;64.99;100791.50;7311429;19;129137;-38
2022/10/07 00:58:08;;;;;;;;;;;;;;;21.93;64.96;100787.13;7314060;19;129820;-38
2022/10/07 01:00:33;;;;;;;;;;;;;;;21.95;65.18;100783.44;7315070;19;129091;-37
2022/10/07 01:02:58;;;;;;;;;;;;;;;21.91;65.60;100783.78;7311055;19;129216;-38
2022/10/07 01:05:24;;;;;;;;;;;;;;;21.89;65.56;100775.19;7310868;19;129118;-37
2022/10/07 01:07:49;;;;;;;;;;;;;;;21.90;64.97;100775.06;7313646;19;129594;-37
2022/10/07 01:10:18;;;;;;;;;;;;;;;21.90;64.79;100777.69;7311553;19;130440;-37
2022/10/07 01:13:06;;;;;;;;;;;;;;;21.91;65.52;100771.50;7312322;19;130331;-37
2022/10/07 01:15:31;;;;;;;;;;;;;;;21.92;64.78;100765.31;7309773;19;129070;-37
2022/10/07 01:18:03;;;;;;;;;;;;;;;21.92;65.03;100762.72;7313572;19;129926;-37
2022/10/07 01:20:45;;;;;;;;;;;;;;;21.90;65.09;100761.97;7313526;19;129418;-37
2022/10/07 01:23:16;;;;;;;;;;;;;;;21.89;65.55;100764.72;7312323;19;128976;-37
2022/10/07 01:26:01;;;;;;;;;;;;;;;21.91;65.02;100758.41;7310580;19;129010;-37
2022/10/07 01:28:27;;;;;;;;;;;;;;;21.93;64.68;100758.31;7313943;19;130258;-38
2022/10/07 01:30:56;;;;;;;;;;;;;;;21.92;64.91;100749.63;7310243;19;129434;-37
2022/10/07 01:33:26;;;;;;;;;;;;;;;21.92;64.98;100752.25;7313418;19;129252;-37
2022/10/07 01:35:52;;;;;;;;;;;;;;;21.93;65.12;100745.22;7305674;19;129083;-37
2022/10/07 01:38:21;;;;;;;;;;;;;;;21.96;65.38;100745.00;7314130;19;131345;-37
2022/10/07 01:40:51;;;;;;;;;;;;;;;21.93;65.24;100735.56;7313320;19;131876;-37
2022/10/07 01:43:18;;;;;;;;;;;;;;;21.92;64.99;100733.91;7310963;19;130070;-38
2022/10/07 01:45:44;;;;;;;;;;;;;;;21.91;65.19;100734.03;7310221;19;129728;-37
2022/10/07 01:48:09;;;;;;;;;;;;;;;21.85;64.57;100710.91;7312381;19;131393;-37
2022/10/07 01:50:35;;;;;;;;;;;;;;;21.94;65.51;100726.78;7312417;19;129674;-38
2022/10/07 01:53:11;;;;;;;;;;;;;;;21.82;64.99;100711.13;7312287;19;129558;-37
2022/10/07 01:55:37;;;;;;;;;;;;;;;21.91;64.82;100726.97;7311196;19;131104;-37
2022/10/07 01:58:20;;;;;;;;;;;;;;;21.93;65.23;100716.44;7310518;19;131104;-37
2022/10/07 02:00:48;;;;;;;;;;;;;;;21.90;65.13;100711.41;7312308;19;129264;-37
2022/10/07 02:03:32;;;;;;;;;;;;;;;21.93;64.86;100717.25;7312360;19;129694;-37
2022/10/07 02:06:16;;;;;;;;;;;;;;;21.92;65.49;100701.66;7312670;19;129076;-37
2022/10/07 02:08:45;;;;;;;;;;;;;;;21.89;65.62;100701.88;7312971;19;129300;-38
2022/10/07 02:11:22;;;;;;;;;;;;;;;21.92;65.18;100697.25;7310216;19;129846;-37
2022/10/07 02:13:57;;;;;;;;;;;;;;;21.82;64.89;100675.31;7311639;19;129406;-37
2022/10/07 02:16:26;;;;;;;;;;;;;;;21.91;65.34;100690.31;7310999;19;129475;-38
2022/10/07 02:18:52;;;;;;;;;;;;;;;21.89;65.70;100696.66;7310709;19;130883;-38
2022/10/07 02:21:20;;;;;;;;;;;;;;;21.87;65.63;100688.91;7311204;19;130032;-38
2022/10/07 02:23:47;;;;;;;;;;;;;;;21.89;65.47;100684.41;7310130;19;129075;-38
2022/10/07 02:26:14;;;;;;;;;;;;;;;21.88;65.31;100677.47;7310494;19;129823;-38
2022/10/07 02:28:41;;;;;;;;;;;;;;;21.88;65.40;100677.47;7311591;19;131315;-38
2022/10/07 02:31:08;;;;;;;;;;;;;;;21.88;65.26;100685.31;7309932;19;129389;-37
2022/10/07 02:33:34;;;;;;;;;;;;;;;21.90;65.42;100683.44;7308960;19;129080;-37
2022/10/07 02:36:02;;;;;;;;;;;;;;;21.90;65.11;100672.97;7307356;19;131165;-37
2022/10/07 02:38:28;;;;;;;;;;;;;;;21.90;65.44;100680.81;7311459;19;130472;-38
2022/10/07 02:41:11;;;;;;;;;;;;;;;21.90;65.26;100667.72;7311329;19;129874;-38
2022/10/07 02:43:46;;;;;;;;;;;;;;;21.93;64.72;100670.09;7310938;19;128869;-37
2022/10/07 02:46:18;;;;;;;;;;;;;;;21.91;65.13;100671.19;7309838;19;129697;-37
2022/10/07 02:48:47;;;;;;;;;;;;;;;21.92;65.12;100665.84;7314451;19;130497;-38
2022/10/07 02:51:17;;;;;;;;;;;;;;;21.90;65.69;100667.72;7317446;19;130261;-37
2022/10/07 02:53:44;;;;;;;;;;;;;;;21.92;64.98;100665.84;7316494;19;131498;-38
2022/10/07 02:56:10;;;;;;;;;;;;;;;21.93;65.56;100656.22;7317064;19;129658;-37
2022/10/07 02:58:36;;;;;;;;;;;;;;;21.85;65.48;100642.84;7318257;19;129403;-38
2022/10/07 03:01:03;;;;;;;;;;;;;;;21.91;64.88;100658.91;7316879;19;130563;-38
2022/10/07 03:03:29;;;;;;;;;;;;;;;21.90;65.50;100654.63;7317060;19;128858;-37
2022/10/07 03:05:54;;;;;;;;;;;;;;;21.88;65.11;100660.94;7312827;19;129898;-38
2022/10/07 03:08:20;;;;;;;;;;;;;;;21.91;65.19;100658.91;7316505;19;129266;-37
2022/10/07 03:10:46;;;;;;;;;;;;;;;21.91;64.89;100653.66;7315820;19;130260;-37
2022/10/07 03:13:11;;;;;;;;;;;;;;;21.89;65.05;100655.59;7316529;19;129251;-37
2022/10/07 03:15:37;;;;;;;;;;;;;;;21.91;65.29;100648.44;7313482;19;130246;-38
2022/10/07 03:18:03;;;;;;;;;;;;;;;21.88;65.12;100648.69;7317051;19;130193;-37
2022/10/07 03:20:31;;;;;;;;;;;;;;;21.92;65.38;100644.88;7316628;19;129462;-37
2022/10/07 03:22:56;;;;;;;;;;;;;;;21.91;65.24;100648.44;7315037;19;128859;-37
2022/10/07 03:25:22;;;;;;;;;;;;;;;21.91;65.60;100647.63;7313856;19;128962;-37
2022/10/07 03:27:47;;;;;;;;;;;;;;;21.92;64.79;100650.13;7317212;19;130386;-37
2022/10/07 03:30:12;;;;;;;;;;;;;;;21.91;65.08;100643.19;7316115;19;129864;-38
2022/10/07 03:32:39;;;;;;;;;;;;;;;21.95;65.02;100643.81;7315613;19;130279;-37
2022/10/07 03:35:04;;;;;;;;;;;;;;;21.91;64.97;100632.72;7314576;19;130756;-37
2022/10/07 03:37:29;;;;;;;;;;;;;;;21.90;65.45;100631.06;7316243;19;129348;-38
2022/10/07 03:39:55;;;;;;;;;;;;;;;21.94;65.33;100636.91;7317280;19;130042;-37
2022/10/07 03:42:20;;;;;;;;;;;;;;;21.90;65.34;100628.47;7316331;19;129849;-37
2022/10/07 03:44:47;;;;;;;;;;;;;;;21.94;65.10;100622.06;7314626;19;129579;-38
2022/10/07 03:47:12;;;;;;;;;;;;;;;21.89;65.10;100629.41;7313613;19;130969;-38
2022/10/07 03:49:38;;;;;;;;;;;;;;;21.92;65.30;100618.72;7316533;19;130266;-38
2022/10/07 03:52:05;;;;;;;;;;;;;;;21.88;65.14;100605.97;7313037;19;129228;-37
2022/10/07 03:54:30;;;;;;;;;;;;;;;21.76;64.74;100596.41;7315497;19;130134;-38
2022/10/07 03:56:55;;;;;;;;;;;;;;;21.89;64.94;100616.31;7314087;19;130218;-38
2022/10/07 03:59:20;;;;;;;;;;;;;;;21.93;64.74;100614.31;7314245;19;129335;-38
2022/10/07 04:01:46;;;;;;;;;;;;;;;21.94;64.70;100610.72;7315579;19;129963;-37
2022/10/07 04:04:11;;;;;;;;;;;;;;;21.89;65.36;100603.25;7315826;19;129705;-38
2022/10/07 04:06:37;;;;;;;;;;;;;;;21.90;65.33;100607.50;7314289;19;131908;-37
2022/10/07 04:09:03;;;;;;;;;;;;;;;21.89;65.43;100608.47;7315197;19;129167;-38
2022/10/07 04:11:28;;;;;;;;;;;;;;;21.93;65.47;100603.84;7313484;19;129070;-38
2022/10/07 04:13:54;;;;;;;;;;;;;;;21.91;64.72;100598.69;7315713;19;129579;-37
2022/10/07 04:16:21;;;;;;;;;;;;;;;21.91;65.35;100593.44;7313322;19;130120;-37
2022/10/07 04:18:47;;;;;;;;;;;;;;;21.81;65.46;100576.81;7315492;19;130245;-38
2022/10/07 04:21:12;;;;;;;;;;;;;;;21.89;65.26;100597.16;7315457;19;128936;-38
2022/10/07 04:23:38;;;;;;;;;;;;;;;21.90;64.94;100593.56;7315725;19;129142;-38
2022/10/07 04:26:08;;;;;;;;;;;;;;;21.90;64.78;100588.34;7313080;19;130936;-38
2022/10/07 04:28:33;;;;;;;;;;;;;;;21.92;65.09;100587.28;7315018;19;130493;-38
2022/10/07 04:31:02;;;;;;;;;;;;;;;21.94;64.64;100589.78;7308419;19;130269;-38
2022/10/07 04:33:28;;;;;;;;;;;;;;;21.91;65.35;100587.41;7313460;19;129083;-37
2022/10/07 04:35:54;;;;;;;;;;;;;;;21.92;65.36;100582.06;7311943;19;130247;-37
2022/10/07 04:38:19;;;;;;;;;;;;;;;21.89;64.99;100582.28;7312384;19;129403;-38
2022/10/07 04:40:46;;;;;;;;;;;;;;;21.88;65.54;100580.59;7313895;19;129924;-37
2022/10/07 04:43:18;;;;;;;;;;;;;;;21.90;64.66;100586.56;7310957;19;130002;-38
2022/10/07 04:45:44;;;;;;;;;;;;;;;21.89;65.63;100577.06;7310143;19;130312;-37
2022/10/07 04:48:09;;;;;;;;;;;;;;;21.84;65.41;100560.88;7313564;19;131071;-37
2022/10/07 04:50:38;;;;;;;;;;;;;;;21.91;64.93;100571.69;7314984;19;129234;-37
2022/10/07 04:53:04;;;;;;;;;;;;;;;21.95;65.31;100576.56;7311465;19;129331;-38
2022/10/07 04:55:34;;;;;;;;;;;;;;;21.92;64.97;100576.81;7310986;19;130174;-38
2022/10/07 04:57:59;;;;;;;;;;;;;;;21.90;65.40;100578.72;7310515;19;130379;-37
2022/10/07 05:00:25;;;;;;;;;;;;;;;21.88;65.03;100572.75;7310073;19;130839;-37
2022/10/07 05:02:50;;;;;;;;;;;;;;;21.90;65.15;100573.47;7307996;19;130458;-38
2022/10/07 05:05:16;;;;;;;;;;;;;;;21.93;64.58;100573.22;7310166;19;129608;-38
2022/10/07 05:07:41;;;;;;;;;;;;;;;21.93;65.00;100573.22;7311207;19;129379;-37
2022/10/07 05:10:07;;;;;;;;;;;;;;;21.91;65.08;100569.91;7309802;19;130934;-37
2022/10/07 05:12:32;;;;;;;;;;;;;;;21.89;65.16;100571.81;7308702;19;129488;-37
2022/10/07 05:14:58;;;;;;;;;;;;;;;21.91;64.64;100559.41;7312571;19;129137;-37
2022/10/07 05:17:24;;;;;;;;;;;;;;;21.83;65.42;100545.28;7312320;19;130074;-37
2022/10/07 05:19:49;;;;;;;;;;;;;;;21.88;64.80;100549.19;7315445;19;129534;-37
2022/10/07 05:22:15;;;;;;;;;;;;;;;21.86;65.16;100551.13;7311414;19;128889;-37
2022/10/07 05:24:40;;;;;;;;;;;;;;;21.83;65.56;100551.31;7311066;19;129313;-38
2022/10/07 05:27:05;;;;;;;;;;;;;;;21.84;64.80;100541.69;7309661;19;129171;-37
2022/10/07 05:29:30;;;;;;;;;;;;;;;21.89;65.00;100545.63;7312371;19;130128;-37
2022/10/07 05:31:55;;;;;;;;;;;;;;;21.88;65.23;100549.19;7307692;19;132551;-37
2022/10/07 05:34:21;;;;;;;;;;;;;;;21.90;65.12;100546.44;7313397;19;130870;-37
2022/10/07 05:36:46;;;;;;;;;;;;;;;21.88;64.58;100533.47;7309914;19;129180;-38
2022/10/07 05:39:12;;;;;;;;;;;;;;;21.90;65.42;100539.44;7312479;19;128976;-38
2022/10/07 05:41:38;;;;;;;;;;;;;;;21.88;65.37;100541.34;7308684;19;130729;-37
2022/10/07 05:44:03;;;;;;;;;;;;;;;21.91;64.77;100533.25;7312579;19;130347;-38
2022/10/07 05:46:28;;;;;;;;;;;;;;;21.93;65.41;100530.53;7310945;19;129303;-37
2022/10/07 05:48:54;;;;;;;;;;;;;;;21.88;65.21;100532.66;7308623;19;131295;-37
2022/10/07 05:51:20;;;;;;;;;;;;;;;21.87;65.21;100525.75;7311482;19;129246;-38
2022/10/07 05:53:46;;;;;;;;;;;;;;;21.89;65.30;100518.63;7311005;19;130168;-37
2022/10/07 05:56:14;;;;;;;;;;;;;;;21.92;65.36;100523.59;7310979;19;130595;-37
2022/10/07 05:58:39;;;;;;;;;;;;;;;21.87;64.91;100526.59;7311740;19;129409;-37
2022/10/07 06:01:05;;;;;;;;;;;;;;;21.78;64.90;100513.38;7311954;19;129766;-37
2022/10/07 06:03:31;;;;;;;;;;;;;;;21.92;65.34;100529.69;7311600;19;129511;-37
2022/10/07 06:05:58;;;;;;;;;;;;;;;21.86;65.21;100522.31;7308814;19;131087;-38
2022/10/07 06:08:24;;;;;;;;;;;;;;;21.85;65.43;100528.50;7312020;19;129130;-38
2022/10/07 06:13:33;;;;;;;;;;;;;;;21.90;65.24;100526.34;7301396;19;130034;-37
2022/10/07 06:15:59;;;;;;;;;;;;;;;21.90;64.88;100521.13;7309767;19;129722;-37
2022/10/07 06:18:24;;;;;;;;;;;;;;;21.90;64.75;100525.50;7305779;19;131362;-37
2022/10/07 06:20:54;;;;;;;;;;;;;;;21.86;64.70;100521.47;7312714;19;130040;-37
2022/10/07 06:23:19;;;;;;;;;;;;;;;21.91;65.51;100519.34;7316090;19;130805;-37
2022/10/07 06:25:50;;;;;;;;;;;;;;;21.91;65.39;100517.53;7313960;19;129650;-37
2022/10/07 06:28:16;;;;;;;;;;;;;;;21.90;65.07;100518.50;7315786;19;129513;-37
2022/10/07 06:30:41;;;;;;;;;;;;;;;21.91;65.13;100517.53;7316811;19;129107;-37
2022/10/07 06:33:06;;;;;;;;;;;;;;;21.90;65.01;100518.50;7312621;19;129627;-37
2022/10/07 06:35:31;;;;;;;;;;;;;;;21.87;65.56;100508.28;7315515;19;129294;-37
2022/10/07 06:37:57;;;;;;;;;;;;;;;21.84;64.74;100505.91;7314552;19;130725;-38
2022/10/07 06:40:22;;;;;;;;;;;;;;;21.94;64.78;100513.84;7316445;19;129040;-37
2022/10/07 06:42:47;;;;;;;;;;;;;;;21.94;65.27;100511.25;7314580;19;129670;-37
2022/10/07 06:45:12;;;;;;;;;;;;;;;21.89;64.50;100500.28;7314533;19;129506;-38
2022/10/07 06:47:38;;;;;;;;;;;;;;;21.80;65.01;100499.22;7315143;19;128963;-38
2022/10/07 06:50:04;;;;;;;;;;;;;;;21.87;65.17;100508.28;7316343;19;129044;-38
2022/10/07 06:52:29;;;;;;;;;;;;;;;21.82;65.04;100518.25;7315185;19;129299;-37
2022/10/07 06:54:54;;;;;;;;;;;;;;;21.87;65.19;100510.88;7313691;19;129921;-37
2022/10/07 06:57:20;;;;;;;;;;;;;;;21.89;64.89;100514.22;7316824;19;129374;-38
2022/10/07 06:59:45;;;;;;;;;;;;;;;21.87;65.57;100510.88;7312352;19;129290;-37
2022/10/07 07:02:10;;;;;;;;;;;;;;;21.85;65.29;100506.69;7312618;19;130046;-38
2022/10/07 07:04:36;;;;;;;;;;;;;;;21.90;64.60;100505.41;7315632;19;130315;-37
2022/10/07 07:07:01;;;;;;;;;;;;;;;21.89;65.16;100501.13;7311591;19;131376;-37
2022/10/07 07:09:26;;;;;;;;;;;;;;;21.89;64.85;100501.13;7313654;19;130237;-37
2022/10/07 07:11:52;;;;;;;;;;;;;;;21.88;65.02;100491.59;7309126;19;131520;-37
2022/10/07 07:14:18;;;;;;;;;;;;;;;21.89;65.44;100493.28;7313084;19;129536;-37
2022/10/07 07:16:43;;;;;;;;;;;;;;;21.91;65.02;100501.00;7314224;19;129512;-38
2022/10/07 07:19:10;;;;;;;;;;;;;;;21.89;64.86;100502.91;7312709;19;130073;-38
2022/10/07 07:21:37;;;;;;;;;;;;;;;21.91;65.33;100496.59;7315643;19;130599;-37
2022/10/07 07:24:02;;;;;;;;;;;;;;;21.89;65.16;100489.81;7317794;19;129206;-37
2022/10/07 07:26:28;;;;;;;;;;;;;;;21.91;64.75;100488.72;7316160;19;129245;-37
2022/10/07 07:28:58;;;;;;;;;;;;;;;21.87;65.48;100483.88;7316695;19;129039;-37
2022/10/07 07:31:24;;;;;;;;;;;;;;;21.90;64.66;100488.84;7315286;19;129724;-38
2022/10/07 07:33:51;;;;;;;;;;;;;;;21.87;65.22;100481.25;7313376;19;131013;-37
2022/10/07 07:36:17;;;;;;;;;;;;;;;21.86;65.46;100480.44;7316328;19;129139;-37
2022/10/07 07:38:42;;;;;;;;;;;;;;;21.91;65.48;100485.31;7315664;19;129623;-38
2022/10/07 07:41:08;;;;;;;;;;;;;;;21.92;65.49;100469.47;7316696;19;130368;-38
2022/10/07 07:43:34;;;;;;;;;;;;;;;21.88;65.30;100481.13;7313874;19;129421;-38
2022/10/07 07:45:59;;;;;;;;;;;;;;;21.88;64.73;100475.88;7312906;19;129519;-38
2022/10/07 07:48:24;;;;;;;;;;;;;;;21.88;65.13;100477.69;7315966;19;128973;-37
2022/10/07 07:50:50;;;;;;;;;;;;;;;21.89;64.69;100472.34;7315041;19;130243;-37
2022/10/07 07:53:15;;;;;;;;;;;;;;;21.87;64.83;100474.22;7314157;19;129719;-37
2022/10/07 07:55:50;;;;;;;;;;;;;;;21.88;64.84;100472.47;7310924;19;129159;-38
2022/10/07 07:58:16;;;;;;;;;;;;;;;21.88;64.57;100473.28;7315861;19;129436;-37
2022/10/07 08:00:42;;;;;;;;;;;;;;;21.80;65.34;100452.09;7314781;19;131161;-38
2022/10/07 08:03:07;;;;;;;;;;;;;;;21.87;65.16;100462.91;7314325;19;129550;-37
2022/10/07 08:05:33;;;;;;;;;;;;;;;21.88;65.17;100470.66;7312516;19;130174;-37
2022/10/07 08:07:58;;;;;;;;;;;;;;;21.90;64.91;100467.91;7314749;19;128978;-37
2022/10/07 08:10:23;;;;;;;;;;;;;;;21.86;65.29;100461.28;7316170;19;130535;-37
2022/10/07 08:12:49;;;;;;;;;;;;;;;21.86;65.40;100467.34;7310701;19;129307;-37
2022/10/07 08:15:14;;;;;;;;;;;;;;;21.81;65.20;100461.63;7311283;19;128883;-37
2022/10/07 08:17:39;;;;;;;;;;;;;;;21.81;65.03;100459.03;7314504;19;129033;-38
2022/10/07 08:20:05;;;;;;;;;;;;;;;21.79;65.40;100450.44;7314902;19;130700;-38
2022/10/07 08:22:30;;;;;;;;;;;;;;;21.83;64.64;100448.44;7312872;19;130484;-38
2022/10/07 08:24:58;;;;;;;;;;;;;;;21.86;65.23;100450.78;7312907;19;129211;-38
2022/10/07 08:27:24;;;;;;;;;;;;;;;21.86;65.20;100454.25;7312292;19;129621;-37
2022/10/07 08:29:50;;;;;;;;;;;;;;;21.86;65.26;100450.78;7315361;19;130378;-38
2022/10/07 08:32:15;;;;;;;;;;;;;;;21.86;65.37;100450.78;7309116;19;130534;-38
2022/10/07 08:34:40;;;;;;;;;;;;;;;21.85;65.37;100446.50;7313926;19;129578;-38
2022/10/07 08:37:05;;;;;;;;;;;;;;;21.90;64.91;100446.97;7314141;19;129794;-37
2022/10/07 08:39:30;;;;;;;;;;;;;;;21.89;65.02;100443.53;7313220;19;129255;-37
2022/10/07 08:41:59;;;;;;;;;;;;;;;21.76;65.35;100424.50;7310219;19;130333;-38
2022/10/07 08:44:27;;;;;;;;;;;;;;;21.84;65.28;100437.84;7312722;19;128941;-37
2022/10/07 08:47:01;;;;;;;;;;;;;;;21.82;65.49;100429.25;7310923;19;129072;-38
2022/10/07 08:49:31;;;;;;;;;;;;;;;21.89;65.33;100435.69;7313998;19;130852;-37
2022/10/07 08:52:00;;;;;;;;;;;;;;;21.86;65.18;100425.47;7311818;19;129673;-38
2022/10/07 08:54:29;;;;;;;;;;;;;;;21.85;64.80;100421.16;7312686;19;129093;-37
2022/10/07 08:56:57;;;;;;;;;;;;;;;21.85;65.15;100423.78;7312614;19;129264;-37
2022/10/07 08:59:26;;;;;;;;;;;;;;;21.85;65.17;100425.56;7310514;19;131049;-38
2022/10/07 09:01:51;;;;;;;;;;;;;;;21.87;64.70;100427.13;7313621;19;129490;-38
2022/10/07 09:04:36;;;;;;;;;;;;;;;21.84;65.40;100422.13;7312875;19;129257;-37
2022/10/07 09:07:15;;;;;;;;;;;;;;;21.82;64.85;100424.03;7349926;19;131145;-37
2022/10/07 09:09:44;;;;;;;;;;;;;;;21.79;65.49;100411.19;7347546;19;129385;-38
2022/10/07 09:12:18;;;;;;;;;;;;;;;21.83;64.82;100415.19;7346660;19;130278;-37
2022/10/07 09:14:45;;;;;;;;;;;;;;;21.85;65.05;100417.69;7343042;19;129465;-38
2022/10/07 09:17:30;;;;;;;;;;;;;;;21.82;65.50;100403.09;7346628;19;129684;-37
2022/10/07 09:19:57;;;;;;;;;;;;;;;21.85;64.82;100417.69;7348235;19;129662;-38
2022/10/07 09:22:29;;;;;;;;;;;;;;;21.81;65.67;100411.91;7345971;19;129148;-37
2022/10/07 09:25:01;;;;;;;;;;;;;;;21.83;65.02;100409.16;7344154;19;129538;-37
2022/10/07 09:27:26;;;;;;;;;;;;;;;21.83;65.38;100414.41;7344692;19;131181;-38
2022/10/07 09:29:51;;;;;;;;;;;;;;;21.82;65.45;100397.84;7345595;19;130074;-37
2022/10/07 09:32:17;;;;;;;;;;;;;;;21.81;64.92;100401.44;7346879;19;129545;-37
2022/10/07 09:34:43;;;;;;;;;;;;;;;21.80;65.43;100391.91;7341075;19;131479;-38
2022/10/07 09:37:25;;;;;;;;;;;;;;;21.77;64.78;100389.53;7347255;19;129167;-38
2022/10/07 09:39:51;;;;;;;;;;;;;;;21.85;64.69;100384.50;7346085;19;128891;-37
2022/10/07 09:42:17;;;;;;;;;;;;;;;21.80;65.14;100384.03;7347382;19;132347;-37
2022/10/07 09:44:49;;;;;;;;;;;;;;;21.83;65.13;100383.78;7341093;19;131041;-38
2022/10/07 09:47:19;;;;;;;;;;;;;;;21.85;65.09;100387.13;7341666;19;129174;-37
2022/10/07 09:49:48;;;;;;;;;;;;;;;21.84;65.42;100380.25;7346507;19;129752;-37
2022/10/07 09:52:16;;;;;;;;;;;;;;;21.82;65.03;100371.66;7337783;19;129652;-37
2022/10/07 09:54:46;;;;;;;;;;;;;;;21.71;65.67;100353.34;7341293;19;130370;-38
2022/10/07 09:57:23;;;;;;;;;;;;;;;21.82;64.83;100369.06;7344872;19;129232;-37
2022/10/07 09:59:49;;;;;;;;;;;;;;;21.83;65.51;100362.84;7341051;19;129269;-37
2022/10/07 10:02:14;;;;;;;;;;;;;;;21.84;64.92;100364.53;7343737;19;129158;-37
2022/10/07 10:04:50;;;;;;;;;;;;;;;21.83;64.91;100362.03;7343418;19;131475;-37
2022/10/07 10:07:29;;;;;;;;;;;;;;;21.84;65.41;100359.31;7337369;19;129161;-37
2022/10/07 10:09:56;;;;;;;;;;;;;;;21.83;65.17;100352.38;7347326;19;130268;-37
2022/10/07 10:12:22;;;;;;;;;;;;;;;21.72;65.13;100334.06;7339834;19;131039;-38
2022/10/07 10:14:56;;;;;;;;;;;;;;;21.82;65.11;100345.50;7341462;19;131192;-37
2022/10/07 10:17:24;;;;;;;;;;;;;;;21.81;65.60;100338.59;7331727;19;128977;-37
2022/10/07 10:19:49;;;;;;;;;;;;;;;21.86;64.69;100339.06;7316662;19;128945;-37
2022/10/07 10:22:28;;;;;;;;;;;;;;;21.81;64.95;100333.38;7314496;19;130151;-37
2022/10/07 10:27:47;;;;;;;;;;;;;;;21.85;64.86;100326.91;7316318;19;129692;-37
2022/10/07 10:30:18;;;;;;;;;;;;;;;21.85;65.08;100316.44;7312857;19;131287;-38
2022/10/07 10:33:00;;;;;;;;;;;;;;;21.79;65.50;100314.34;7314333;19;130908;-37
2022/10/07 10:35:29;;;;;;;;;;;;;;;21.80;65.40;100313.38;7312388;19;131246;-37
2022/10/07 10:38:01;;;;;;;;;;;;;;;21.82;65.51;100313.25;7311013;19;129266;-37
2022/10/07 10:40:45;;;;;;;;;;;;;;;21.76;65.28;100292.78;7315385;19;130088;-37
2022/10/07 10:43:17;;;;;;;;;;;;;;;21.87;64.93;100300.63;7311254;19;130210;-38
2022/10/07 10:45:50;;;;;;;;;;;;;;;21.84;65.05;100295.63;7311679;19;130324;-37
2022/10/07 10:48:18;;;;;;;;;;;;;;;21.73;65.07;100280.75;7314683;19;129572;-37
2022/10/07 10:50:43;;;;;;;;;;;;;;;21.68;65.10;100269.81;7315796;19;129078;-38
2022/10/07 10:53:11;;;;;;;;;;;;;;;21.83;65.21;100286.94;7312260;19;130565;-37
2022/10/07 10:55:57;;;;;;;;;;;;;;;21.83;64.76;100284.31;7310027;19;131081;-38
2022/10/07 10:58:25;;;;;;;;;;;;;;;21.83;65.17;100278.28;7315609;19;130293;-37
2022/10/07 11:00:57;;;;;;;;;;;;;;;21.76;65.58;100272.72;7310195;19;129214;-38
2022/10/07 11:03:49;;;;;;;;;;;;;;;21.82;65.27;100276.59;7310562;19;130309;-37
2022/10/07 11:06:16;;;;;;;;;;;;;;;21.84;64.91;100274.69;7305078;19;130564;-37
2022/10/07 11:08:42;;;;;;;;;;;;;;;21.83;65.32;100267.81;7313299;19;129165;-37
2022/10/07 11:11:07;;;;;;;;;;;;;;;21.83;65.07;100263.38;7312908;19;129432;-38
2022/10/07 11:13:32;;;;;;;;;;;;;;;21.79;64.67;100262.00;7303333;19;130030;-37
2022/10/07 11:16:10;;;;;;;;;;;;;;;21.71;64.95;100240.81;7307682;19;129596;-38
2022/10/07 11:18:35;;;;;;;;;;;;;;;21.81;65.12;100246.16;7307133;19;129111;-37
2022/10/07 11:21:03;;;;;;;;;;;;;;;21.72;65.66;100239.00;7305130;19;130368;-38
2022/10/07 11:23:29;;;;;;;;;;;;;;;21.86;65.49;100234.38;7311342;19;129655;-37
2022/10/07 11:25:56;;;;;;;;;;;;;;;21.80;65.06;100234.84;7310538;19;129480;-38
2022/10/07 11:28:28;;;;;;;;;;;;;;;21.80;65.29;100232.22;7311830;19;130273;-37
2022/10/07 11:30:58;;;;;;;;;;;;;;;21.82;64.35;100225.09;7311311;19;129010;-37
2022/10/07 11:33:32;;;;;;;;;;;;;;;21.87;65.20;100224.69;7311013;19;129477;-37
2022/10/07 11:36:06;;;;;;;;;;;;;;;21.87;64.93;100217.69;7311696;19;130342;-37
2022/10/07 11:38:32;;;;;;;;;;;;;;;21.87;64.79;100209.00;7309486;19;129152;-37
2022/10/07 11:41:07;;;;;;;;;;;;;;;21.89;65.10;100200.06;7303762;19;129091;-37
2022/10/07 11:43:45;;;;;;;;;;;;;;;21.87;65.19;100199.38;7296238;19;129688;-37
2022/10/07 11:46:19;;;;;;;;;;;;;;;21.89;64.96;100200.06;7310971;19;130435;-37
2022/10/07 11:48:48;;;;;;;;;;;;;;;21.90;65.20;100206.13;7306719;19;131195;-37
2022/10/07 11:51:28;;;;;;;;;;;;;;;21.91;64.55;100197.31;7314181;19;128839;-37
2022/10/07 11:53:57;;;;;;;;;;;;;;;21.87;64.70;100190.66;7309816;19;129282;-37
2022/10/07 11:56:25;;;;;;;;;;;;;;;21.83;65.18;100184.84;7307137;19;130419;-37
2022/10/07 11:59:01;;;;;;;;;;;;;;;21.85;64.38;100182.94;7312260;19;129209;-37
2022/10/07 12:01:27;;;;;;;;;;;;;;;21.88;64.63;100174.03;7311805;19;129411;-37
2022/10/07 12:03:52;;;;;;;;;;;;;;;21.85;64.56;100171.63;7312165;19;130236;-37
2022/10/07 12:06:18;;;;;;;;;;;;;;;21.78;65.29;100158.22;7306612;19;129832;-37
2022/10/07 12:08:44;;;;;;;;;;;;;;;21.86;64.99;100166.31;7310476;19;129154;-38
2022/10/07 12:11:15;;;;;;;;;;;;;;;21.87;65.03;100154.03;7307682;19;128957;-38
2022/10/07 12:13:45;;;;;;;;;;;;;;;21.83;65.02;100155.25;7310668;19;130922;-37
2022/10/07 12:16:22;;;;;;;;;;;;;;;21.84;64.73;100149.88;7314203;19;129494;-37
2022/10/07 12:19:05;;;;;;;;;;;;;;;21.84;64.97;100144.66;7310504;19;129910;-37
2022/10/07 12:21:50;;;;;;;;;;;;;;;21.85;64.89;100141.06;7311630;19;130029;-38
2022/10/07 12:24:15;;;;;;;;;;;;;;;21.74;65.28;100133.25;7307379;19;130307;-38
2022/10/07 12:26:43;;;;;;;;;;;;;;;21.84;65.14;100139.41;7311102;19;129119;-37
2022/10/07 12:29:19;;;;;;;;;;;;;;;21.79;65.17;100128.50;7312883;19;130215;-37
2022/10/07 12:31:45;;;;;;;;;;;;;;;21.81;65.49;100134.44;7313607;19;129555;-37
2022/10/07 12:34:17;;;;;;;;;;;;;;;21.83;65.25;100131.69;7307470;19;129981;-37
2022/10/07 12:36:43;;;;;;;;;;;;;;;21.80;65.30;100127.53;7312230;19;129223;-37
2022/10/07 12:39:11;;;;;;;;;;;;;;;21.70;64.96;100105.66;7311814;19;129134;-38